Weather observations for the past three days for
Grangeville - Idaho County Airport
Metric (Imperial)
Date Time (pdt) Wind (kph) Vis. (km) Weather Sky Cond. Temperature (ºC) Relative Humidity Wind Chill (°C) Heat Index (°C) Pressure Precipitation (cm)
Air Dwpt 6 hour altimeter (cm) sea level (mb) 1 hr 3 hr 6 hr
Max. Min.
05 15:35 N 17 16.09 Fair CLR 20 4 35% 75.95 0.0
05 15:15 NW 17 G 26 16.09 Fair CLR 20 5 38% 75.95 0.0
05 14:55 N 15 16.09 Fair CLR 20 4 35% 75.97 0.0
05 14:35 N 17 G 30 16.09 Partly Cloudy SCT065 20 5 38% 75.97 0.0
05 14:15 NE 9 G 30 16.09 Partly Cloudy SCT065 19 4 37% 75.97 0.0
05 13:55 E 9 16.09 Partly Cloudy SCT065 18 4 40% 76 0.0
05 13:35 NW 7 16.09 Partly Cloudy SCT065 18 5 43% 76 0.0
05 13:15 Calm 16.09 Fair CLR 18 4 40% 76 0.0
05 13:00 N 13 16.09 Fair CLR 18 5 43% 76 0.0
05 12:15 E 11 16.09 Fair CLR 17 5 45% 76.02 0.0
05 11:55 E 11 16.09 Partly Cloudy SCT075 17 6 49% 76.02 0.0
05 11:15 E 9 16.09 Fair CLR 16 8 59% 76.02 0.0
05 10:55 NE 9 16.09 Fair CLR 16 8 59% 76.02 0.0
05 10:35 E 6 16.09 Fair CLR 15 7 59% 76.02 0.0
05 10:15 NE 6 16.09 Fair CLR 15 7 59% 76.02 0.0
05 10:00 Calm 16.09 Fair CLR 15 7 59% 76 0.0
05 09:10 Calm 16.09 Fair CLR 13 7 67% 76 0.0
05 08:35 Calm 16.09 Fair CLR 11 6 72% 76 0.0
05 08:15 Calm 16.09 Fair CLR 11 6 72% 76 0.0
05 07:55 Calm 16.09 Fair CLR 10 4 67% 75.97 0.0
05 07:35 Calm 16.09 Fair CLR 10 4 67% 75.97 0.0
05 07:15 Calm 16.09 Fair CLR 9 5 76% 75.97 0.0
05 06:55 Calm 16.09 Fair CLR 8 5 82% 75.95 0.0
05 06:35 Calm 16.09 Fair CLR 5 5 100% 75.95 0.0
05 06:15 Calm 11.27 Fair CLR 5 3 87% 75.92 0.0
05 05:55 Calm 16.09 Fair CLR 5 3 87% 75.9 0.0
05 05:35 Calm 16.09 Fair CLR 5 3 87% 75.9 0.0
05 05:15 Calm 16.09 Fair CLR 5 3 87% 75.9 0.0
05 04:55 Calm 16.09 Fair CLR 5 3 87% 75.87 0.0
05 04:35 S 6 16.09 Fair CLR 7 3 76% 75.87 0.0
05 04:15 Calm 16.09 Fair CLR 6 3 81% 75.87 0.0
05 03:55 Calm 16.09 Fair CLR 7 5 87% 75.84 0.0
05 03:35 Calm 16.09 Fair CLR 6 5 93% 75.84 0.0
05 03:15 S 7 16.09 Fair CLR 6 5 93% 5 75.82 0.0
05 02:55 SW 9 16.09 Fair CLR 6 5 93% 4 75.82 0.0
05 02:35 Calm 16.09 Fair CLR 6 5 93% 75.82 0.0
05 02:15 Calm 16.09 Fair CLR 6 5 93% 75.82 0.0
05 01:55 Calm 16.09 Fair CLR 6 5 93% 75.79 0.0
05 01:35 Calm 16.09 Fair CLR 7 5 87% 75.79 0.0
05 01:15 Calm 16.09 Fair CLR 8 5 82% 75.82 0.0
05 00:55 Calm 16.09 Fair CLR 7 5 87% 75.82 0.0
05 00:35 S 6 16.09 Fair CLR 8 6 87% 75.82 0.0
05 00:15 Calm 16.09 Fair CLR 9 6 82% 75.79 0.0
04 23:55 NW 6 16.09 Fair CLR 8 6 87% 75.77 0.0
04 23:35 Calm 16.09 Fair CLR 10 6 76% 75.74 0.0
04 23:15 S 6 16.09 Fair CLR 10 6 76% 75.74 0.0
04 22:55 Calm 16.09 Fair CLR 10 6 76% 75.74 0.0
04 22:35 SE 6 16.09 Fair CLR 11 7 77% 75.74 0.0
04 22:15 E 9 16.09 Fair CLR 12 7 72% 75.74 0.0
04 21:55 E 9 16.09 Fair CLR 12 7 72% 75.74 0.0
04 21:35 NE 13 16.09 Partly Cloudy SCT085 12 7 72% 75.74 0.0
04 21:15 NE 7 16.09 Mostly Cloudy BKN085 14 7 63% 75.72 0.0
04 20:55 Calm 16.09 Fair CLR 15 7 59% 75.69 0.0
04 20:35 Calm 16.09 Partly Cloudy SCT090 16 6 52% 75.69 0.0
04 20:15 Calm 16.09 Mostly Cloudy BKN090 16 6 52% 75.67 0.0
04 19:55 Calm 16.09 Partly Cloudy SCT100 16 7 55% 75.67 0.0
04 19:35 Calm 16.09 Partly Cloudy SCT110 17 7 52% 75.64 0.0
04 19:15 NW 11 16.09 Partly Cloudy SCT100 18 7 49% 75.64 0.0
04 18:55 NW 11 16.09 Fair CLR 18 7 49% 75.64 0.0
04 18:35 NW 13 16.09 Fair CLR 20 7 43% 75.64 0.0
04 18:15 NW 13 16.09 Fair CLR 20 7 43% 75.64 0.0
04 17:55 NW 19 16.09 Fair CLR 21 7 40% 75.64 0.0
04 17:35 NW 13 16.09 Fair CLR 21 6 38% 75.64 0.0
04 17:15 NW 20 16.09 Fair CLR 21 5 35% 75.64 0.0
04 16:55 N 19 G 28 16.09 Fair CLR 22 5 33% 75.64 0.0
04 16:35 N 20 G 31 16.09 Fair CLR 21 4 33% 75.64 0.0
04 16:15 N 20 G 28 16.09 Fair CLR 21 6 38% 75.67 0.0
04 15:30 N 15 G 26 16.09 Fair CLR 22 6 36% 75.67 0.0
04 15:15 N 19 16.09 Fair CLR 22 7 38% 75.67 0.0
04 14:55 N 17 16.09 Partly Cloudy SCT070 22 7 38% 75.69 0.0
04 14:35 N 15 16.09 Partly Cloudy SCT070 22 8 41% 75.69 0.0
04 14:15 Calm 16.09 Fair CLR 22 7 38% 75.72 0.0
04 13:55 NE 11 16.09 Fair CLR 22 10 47% 75.72 0.0
04 13:35 N 9 16.09 Fair CLR 21 8 43% 75.72 0.0
04 13:15 NE 9 16.09 Fair CLR 21 8 43% 75.72 0.0
04 12:55 E 9 16.09 Fair CLR 21 8 43% 75.72 0.0
04 12:35 E 9 16.09 Fair CLR 21 9 46% 75.74 0.0
04 12:15 Calm 16.09 Fair CLR 20 8 46% 75.74 0.0
04 11:55 E 7 16.09 Fair CLR 20 8 46% 75.74 0.0
04 11:35 E 7 16.09 Fair CLR 20 9 49% 75.74 0.0
04 11:15 E 11 16.09 Fair CLR 20 10 53% 75.74 0.0
04 10:55 E 6 16.09 Fair CLR 19 8 49% 75.77 0.0
04 10:35 E 7 16.09 Fair CLR 19 9 52% 75.77 0.0
04 10:15 NE 7 16.09 Fair CLR 18 8 52% 75.77 0.0
04 09:55 NE 6 16.09 Fair CLR 17 7 52% 75.77 0.0
04 09:35 Calm 16.09 Fair CLR 17 7 52% 75.77 0.0
04 09:15 Calm 16.09 Fair CLR 16 6 52% 75.79 0.0
04 08:55 Calm 16.09 Fair CLR 15 6 55% 75.79 0.0
04 08:40 N 6 16.09 Fair CLR 14 6 59% 75.79 0.0
04 08:15 N 6 16.09 Fair CLR 13 4 55% 75.84 0.0
04 07:50 Calm 16.09 Fair CLR 12 3 54% 75.84 0.0
04 07:35 Calm 16.09 Fair CLR 11 5 67% 75.84 0.0
04 07:15 Calm 16.09 Fair CLR 10 5 71% 75.82 0.0
04 06:55 Calm 16.09 Fair CLR 8 3 71% 75.82 0.0
04 06:35 Calm 16.09 Fair CLR 8 3 71% 75.82 0.0
04 06:15 Calm 16.09 Fair CLR 8 1 62% 75.79 0.0
04 05:55 SE 7 16.09 Fair CLR 6 1 71% 5 75.79 0.0
04 05:35 Calm 16.09 Fair CLR 6 0 66% 75.79 0.0
04 04:55 Calm 16.09 Fair CLR 5 1 76% 75.79 0.0
04 04:35 Calm 16.09 Fair CLR 5 1 76% 75.79 0.0
04 04:15 Calm 16.09 Fair CLR 3 1 87% 75.79 0.0
04 03:55 Calm 16.09 Fair CLR 6 1 71% 75.79 0.0
04 03:35 Calm 16.09 Fair CLR 6 0 66% 75.79 0.0
04 03:15 Calm 16.09 Fair CLR 6 1 71% 75.79 0.0
04 02:55 Calm 16.09 Fair CLR 5 1 76% 75.79 0.0
04 02:35 Calm 16.09 Fair CLR 5 1 76% 75.79 0.0
04 02:15 Calm 16.09 Fair CLR 6 2 76% 75.79 0.0
04 01:55 Calm 16.09 Fair CLR 6 2 76% 75.79 0.0
04 01:35 Calm 16.09 Fair CLR 7 2 71% 75.82 0.0
04 01:15 Calm 16.09 Fair CLR 7 1 66% 75.82 0.0
04 00:55 Calm 16.09 Fair CLR 9 1 58% 75.84 0.0
04 00:35 Calm 16.09 Fair CLR 9 1 58% 75.84 0.0
04 00:15 Calm 16.09 Fair CLR 10 1 54% 75.84 0.0
03 23:55 Calm 16.09 Fair CLR 8 2 66% 75.84 0.0
03 23:35 Calm 16.09 Fair CLR 7 2 71% 75.84 0.0
03 23:15 S 9 16.09 Fair CLR 7 2 71% 5 75.87 0.0
03 22:55 S 11 16.09 Fair CLR 8 2 66% 6 75.87 0.0
03 22:35 S 11 16.09 Fair CLR 10 2 58% 9 75.87 0.0
03 22:15 S 11 16.09 Fair CLR 10 2 58% 9 75.87 0.0
03 21:55 S 9 16.09 Fair CLR 9 3 66% 8 75.9 0.0
03 21:35 S 6 16.09 Fair CLR 10 3 62% 75.9 0.0
03 21:15 S 9 16.09 Fair CLR 11 3 58% 75.9 0.0
03 20:55 SW 9 16.09 Fair CLR 11 4 62% 75.9 0.0
03 20:35 SW 6 16.09 Fair CLR 13 5 59% 75.87 0.0
03 20:15 Calm 16.09 Fair CLR 16 5 48% 75.87 0.0
03 19:55 Calm 16.09 Fair CLR 16 5 48% 75.87 0.0
03 19:35 N 6 16.09 Fair CLR 18 5 43% 75.84 0.0
03 19:15 Calm 16.09 Fair CLR 18 6 46% 75.87 0.0
03 18:55 N 7 16.09 Fair CLR 19 7 46% 75.87 0.0
03 18:35 N 11 16.09 Fair CLR 20 6 40% 75.87 0.0
03 18:15 N 13 16.09 Fair CLR 21 5 35% 75.9 0.0
03 17:55 N 15 16.09 Fair CLR 21 5 35% 75.9 0.0
03 17:35 N 19 16.09 Fair CLR 21 5 35% 75.92 0.0
03 17:15 N 13 G 28 16.09 Partly Cloudy SCT080 21 5 35% 75.92 0.0
03 16:55 N 17 16.09 Partly Cloudy SCT080 22 5 33% 75.92 0.0
03 16:35 N 17 16.09 Partly Cloudy SCT080 21 7 40% 75.95 0.0
03 16:15 NE 11 16.09 Mostly Cloudy BKN080 22 6 36% 75.95 0.0
03 15:55 NE 11 16.09 Partly Cloudy SCT080 21 8 43% 75.95 0.0
03 15:35 Calm 16.09 Fair CLR 22 5 33% 75.97 0.0
03 15:15 Calm 16.09 Fair CLR 22 6 36% 75.97 0.0
03 14:55 Calm 16.09 Fair CLR 22 5 33% 76 0.0
03 14:35 N 9 16.09 Fair CLR 22 6 36% 76.02 0.0
03 14:15 Calm 16.09 Fair CLR 22 4 31% 76.02 0.0
03 13:55 Calm 16.09 Fair CLR 22 5 33% 76.07 0.0
03 13:35 E 7 16.09 Fair CLR 21 4 33% 76.07 0.0
03 13:15 Calm 16.09 Fair CLR 21 6 38% 76.1 0.0
03 12:55 E 6 16.09 Fair CLR 21 5 35% 76.1 0.0
03 12:35 Calm 16.09 Fair CLR 21 4 33% 76.12 0.0
03 12:15 Calm 16.09 Fair CLR 21 5 35% 76.15 0.0
03 11:55 E 6 16.09 Fair CLR 20 5 38% 76.15 0.0
03 11:35 NE 7 16.09 Fair CLR 20 7 43% 76.17 0.0
03 11:15 NE 6 16.09 Fair CLR 19 5 40% 76.17 0.0
03 10:55 Calm 16.09 Fair CLR 18 8 52% 76.2 0.0
03 10:35 Calm 16.09 Fair CLR 17 7 52% 76.2 0.0
03 10:15 Calm 16.09 Fair CLR 17 6 49% 76.2 0.0
03 09:55 Calm 16.09 Fair CLR 16 7 55% 76.2 0.0
03 09:35 NE 6 16.09 Fair CLR 15 7 59% 76.2 0.0
03 09:15 NE 7 16.09 Fair CLR 15 7 59% 76.2 0.0
03 08:55 NE 7 16.09 Fair CLR 14 7 63% 76.2 0.0
03 08:35 NE 6 16.09 Fair CLR 13 6 63% 76.2 0.0
03 08:15 NE 6 16.09 Fair CLR 13 6 63% 76.2 0.0
03 07:55 NE 9 16.09 Fair CLR 12 6 67% 76.2 0.0
03 07:35 Calm 16.09 Fair CLR 12 5 63% 76.2 0.0
03 07:15 Calm 16.09 Fair CLR 11 5 67% 76.2 0.0
03 06:55 Calm 16.09 Fair CLR 11 5 67% 76.2 0.0
03 06:35 E 6 16.09 Fair CLR 10 3 62% 76.2 0.0
03 06:15 SE 6 16.09 Fair CLR 9 2 62% 76.2 0.0
03 05:55 E 6 16.09 Fair CLR 7 2 71% 76.2 0.0
03 05:35 Calm 16.09 Fair CLR 5 2 81% 76.2 0.0
03 05:15 Calm 16.09 Fair CLR 5 2 81% 76.17 0.0
03 04:55 Calm 16.09 Fair CLR 6 2 76% 76.17 0.0
03 04:35 Calm 16.09 Fair CLR 5 2 81% 76.2 0.0
03 04:15 Calm 16.09 Fair CLR 6 2 76% 76.2 0.0
03 03:35 E 6 16.09 Fair CLR 7 2 71% 76.23 0.0
03 03:15 Calm 16.09 Fair CLR 7 3 76% 76.2 0.0
03 02:55 Calm 16.09 Fair CLR 7 3 76% 76.2 0.0
03 02:35 Calm 16.09 Fair CLR 8 3 71% 76.17 0.0
03 02:15 Calm 16.09 Fair CLR 8 3 71% 76.17 0.0
03 01:55 SW 6 16.09 Fair CLR 8 3 71% 76.17 0.0
03 01:35 S 9 16.09 Fair CLR 8 3 71% 7 76.17 0.0
03 01:15 S 9 16.09 Fair CLR 9 3 66% 8 76.2 0.0
03 00:55 S 9 16.09 Fair CLR 8 3 71% 7 76.17 0.0
03 00:35 SW 9 16.09 Fair CLR 8 3 71% 7 76.17 0.0
03 00:15 S 6 16.09 Fair CLR 10 3 62% 76.17 0.0
02 23:55 S 7 16.09 Fair CLR 8 3 71% 7 76.17 0.0
02 23:35 S 7 16.09 Fair CLR 10 3 62% 9 76.17 0.0
02 23:15 S 6 16.09 Fair CLR 11 3 58% 76.17 0.0
02 22:55 S 9 16.09 Fair CLR 10 3 62% 9 76.17 0.0
02 22:35 Calm 16.09 Fair CLR 11 2 54% 76.2 0.0
02 22:15 Calm 16.09 Fair CLR 10 3 62% 76.2 0.0
02 21:55 SE 7 16.09 Fair CLR 11 2 54% 76.17 0.0
02 21:35 Calm 16.09 Fair CLR 11 3 58% 76.17 0.0
02 21:15 Calm 16.09 Fair CLR 11 3 58% 76.17 0.0
02 20:55 S 7 16.09 Fair CLR 10 4 67% 9 76.15 0.0
02 20:35 S 7 16.09 Fair CLR 12 3 54% 76.12 0.0
02 20:15 S 6 16.09 Fair CLR 12 5 63% 76.12 0.0
02 19:55 S 6 16.09 Fair CLR 14 4 51% 76.12 0.0
02 19:35 Calm 16.09 Fair CLR 17 3 39% 76.1 0.0
02 19:15 Calm 16.09 Fair CLR 19 2 32% 76.1 0.0
02 18:55 Calm 16.09 Fair CLR 20 4 35% 76.12 0.0
02 18:35 Calm 16.09 Fair CLR 19 5 40% 76.12 0.0
02 18:15 Calm 16.09 Fair CLR 20 6 40% 76.12 0.0
02 17:55 N 7 16.09 Fair CLR 20 1 28% 76.12 0.0
02 17:35 N 9 16.09 Fair CLR 21 1 27% 76.12 0.0
02 17:15 N 9 16.09 Fair CLR 21 3 31% 76.12 0.0
02 16:55 N 13 16.09 Fair CLR 21 4 33% 76.12 0.0
02 16:35 N 9 16.09 Fair CLR 22 5 33% 76.12 0.0
02 16:15 N 7 16.09 Fair CLR 22 7 38% 76.12 0.0
Date Time (pdt) Wind (kph) Vis. (km) Weather Sky Cond. Air Dwpt Max. Min. Relative Humidity Wind Chill (°C) Heat Index (°C) altimeter (cm) sea level (mb) 1 hr 3 hr 6 hr
6 hour
Temperature (ºC) Pressure Precipitation (cm)